createdAt,value
2022-10-07T00:02:15.014Z,26.40
2022-10-07T00:05:03.013Z,26.40
2022-10-07T00:07:50.941Z,26.30
2022-10-07T00:10:42.150Z,26.30
2022-10-07T00:13:30.024Z,26.30
2022-10-07T00:16:37.288Z,26.30
2022-10-07T00:19:25.221Z,26.30
2022-10-07T00:22:13.279Z,26.30
2022-10-07T00:25:01.198Z,26.20
2022-10-07T00:27:50.328Z,26.20
2022-10-07T00:30:38.301Z,26.20
2022-10-07T00:33:26.705Z,26.20
2022-10-07T00:36:23.756Z,26.20
2022-10-07T00:39:14.730Z,26.20
2022-10-07T00:42:02.672Z,26.10
2022-10-07T00:44:50.384Z,26.10
2022-10-07T00:47:38.189Z,26.10
2022-10-07T00:50:29.445Z,26.10
2022-10-07T00:53:17.519Z,26.00
2022-10-07T00:56:07.976Z,26.10
2022-10-07T00:58:56.941Z,26.00
2022-10-07T01:01:44.889Z,26.00
2022-10-07T01:04:32.978Z,26.00
2022-10-07T01:07:21.737Z,26.00
2022-10-07T01:10:11.793Z,26.00
2022-10-07T01:13:05.421Z,26.00
2022-10-07T01:16:12.677Z,26.00
2022-10-07T01:19:51.415Z,26.00
2022-10-07T01:22:56.819Z,26.00
2022-10-07T01:26:08.568Z,25.90
2022-10-07T01:29:09.432Z,25.90
2022-10-07T01:32:23.492Z,25.90
2022-10-07T01:35:21.559Z,25.80
2022-10-07T01:38:13.081Z,25.90
2022-10-07T01:41:21.265Z,25.80
2022-10-07T01:44:11.935Z,25.80
2022-10-07T01:47:02.145Z,25.80
2022-10-07T01:49:50.104Z,25.80
2022-10-07T01:52:51.379Z,25.80
2022-10-07T01:55:48.608Z,25.80
2022-10-07T01:59:16.842Z,25.80
2022-10-07T02:02:48.052Z,25.80
2022-10-07T02:05:49.958Z,25.70
2022-10-07T02:08:51.961Z,25.70
2022-10-07T02:11:43.091Z,25.70
2022-10-07T02:14:44.295Z,25.70
2022-10-07T02:17:37.660Z,25.70
2022-10-07T02:20:32.008Z,25.70
2022-10-07T02:23:22.360Z,25.70
2022-10-07T02:26:13.299Z,25.70
2022-10-07T02:29:05.269Z,25.70
2022-10-07T02:31:54.712Z,25.60
2022-10-07T02:34:45.919Z,25.60
2022-10-07T02:37:36.140Z,25.60
2022-10-07T02:40:32.728Z,25.60
2022-10-07T02:43:45.792Z,25.60
2022-10-07T02:46:50.132Z,25.60
2022-10-07T02:49:40.680Z,25.60
2022-10-07T02:52:31.254Z,25.60
2022-10-07T02:55:23.286Z,25.60
2022-10-07T02:58:13.511Z,25.50
2022-10-07T03:01:03.794Z,25.50
2022-10-07T03:03:51.606Z,25.50
2022-10-07T03:06:42.032Z,25.50
2022-10-07T03:09:30.504Z,25.50
2022-10-07T03:12:18.499Z,25.50
2022-10-07T03:15:06.822Z,25.40
2022-10-07T03:17:54.746Z,25.50
2022-10-07T03:20:42.463Z,25.40
2022-10-07T03:23:30.658Z,25.40
2022-10-07T03:26:19.126Z,25.40
2022-10-07T03:29:08.331Z,25.40
2022-10-07T03:31:56.071Z,25.40
2022-10-07T03:34:43.831Z,25.40
2022-10-07T03:37:32.001Z,25.40
2022-10-07T03:40:20.350Z,25.40
2022-10-07T03:43:09.356Z,25.40
2022-10-07T03:45:58.467Z,25.40
2022-10-07T03:48:46.469Z,25.40
2022-10-07T03:51:36.003Z,25.40
2022-10-07T03:54:23.736Z,25.30
2022-10-07T03:57:30.193Z,25.30
2022-10-07T04:00:20.934Z,25.30
2022-10-07T04:03:09.583Z,25.30
2022-10-07T04:05:59.914Z,25.30
2022-10-07T04:08:52.854Z,25.30
2022-10-07T04:11:41.714Z,25.30
2022-10-07T04:14:29.494Z,25.30
2022-10-07T04:17:21.839Z,25.20
2022-10-07T04:20:10.974Z,25.20
2022-10-07T04:22:58.763Z,25.20
2022-10-07T04:25:47.560Z,25.20
2022-10-07T04:28:35.675Z,25.20
2022-10-07T04:31:23.903Z,25.20
2022-10-07T04:34:11.952Z,25.20
2022-10-07T04:37:01.140Z,25.20
2022-10-07T04:40:00.323Z,25.20
2022-10-07T04:43:07.779Z,25.20
2022-10-07T04:46:15.847Z,25.20
2022-10-07T04:49:03.733Z,25.10
2022-10-07T04:51:52.758Z,25.10
2022-10-07T04:54:40.693Z,25.10
2022-10-07T04:57:28.396Z,25.10
2022-10-07T05:00:16.382Z,25.10
2022-10-07T05:03:04.186Z,25.10
2022-10-07T05:05:57.084Z,25.10
2022-10-07T05:08:45.262Z,25.10
2022-10-07T05:11:33.036Z,25.10
2022-10-07T05:14:21.539Z,25.10
2022-10-07T05:17:09.377Z,25.10
2022-10-07T05:19:57.082Z,25.10
2022-10-07T05:22:44.795Z,25.00
2022-10-07T05:25:32.514Z,25.00
2022-10-07T05:28:20.254Z,25.00
2022-10-07T05:31:11.854Z,25.00
2022-10-07T05:34:00.325Z,25.00
2022-10-07T05:36:48.135Z,25.00
2022-10-07T05:39:38.209Z,25.00
2022-10-07T05:42:25.953Z,25.00
2022-10-07T05:45:13.754Z,25.00
2022-10-07T05:48:01.641Z,25.00
2022-10-07T05:50:49.412Z,25.00
2022-10-07T05:53:41.191Z,25.10
2022-10-07T05:56:29.180Z,25.10
2022-10-07T05:59:17.027Z,25.10
2022-10-07T06:02:04.882Z,25.10
2022-10-07T06:04:52.719Z,25.20
2022-10-07T06:07:40.447Z,25.20
2022-10-07T06:10:46.761Z,25.20
2022-10-07T06:13:35.729Z,25.20
2022-10-07T06:16:24.502Z,25.20
2022-10-07T06:19:22.709Z,25.10
2022-10-07T06:22:11.175Z,24.70
2022-10-07T06:25:02.062Z,24.40
2022-10-07T06:27:53.875Z,24.20
2022-10-07T06:30:42.253Z,24.30
2022-10-07T06:33:30.018Z,24.40
2022-10-07T06:36:18.413Z,24.40
2022-10-07T06:39:06.213Z,24.60
2022-10-07T06:41:54.644Z,24.70
2022-10-07T06:44:43.035Z,24.80
2022-10-07T06:47:30.886Z,24.80
2022-10-07T06:50:18.691Z,24.90
2022-10-07T06:53:06.446Z,25.00
2022-10-07T06:55:54.755Z,25.10
2022-10-07T06:58:43.406Z,25.20
2022-10-07T07:01:31.436Z,25.30
2022-10-07T07:04:19.267Z,25.40
2022-10-07T07:07:07.295Z,25.40
2022-10-07T07:09:55.057Z,25.50
2022-10-07T07:12:43.097Z,25.50
2022-10-07T07:15:31.289Z,25.60
2022-10-07T07:18:19.020Z,25.60
2022-10-07T07:21:07.767Z,25.60
2022-10-07T07:23:56.422Z,25.60
2022-10-07T07:26:44.143Z,25.70
2022-10-07T07:29:32.081Z,25.70
2022-10-07T07:32:19.838Z,25.70
2022-10-07T07:35:08.160Z,25.70
2022-10-07T07:37:55.910Z,25.80
2022-10-07T07:40:43.653Z,25.90
2022-10-07T07:43:31.617Z,26.00
2022-10-07T07:46:21.982Z,26.10
2022-10-07T07:49:11.964Z,26.20
2022-10-07T07:52:00.640Z,26.30
2022-10-07T07:54:48.962Z,26.40
2022-10-07T07:57:37.212Z,26.50
2022-10-07T08:00:24.982Z,26.60
2022-10-07T08:03:12.755Z,26.70
2022-10-07T08:06:02.161Z,26.90
2022-10-07T08:08:51.909Z,26.90
2022-10-07T08:11:42.146Z,27.00
2022-10-07T08:14:31.123Z,27.10
2022-10-07T08:17:18.880Z,27.30
2022-10-07T08:20:08.683Z,27.30
2022-10-07T08:22:58.992Z,27.30
2022-10-07T08:25:47.102Z,27.50
2022-10-07T08:28:36.158Z,27.50
2022-10-07T08:31:27.999Z,27.60
2022-10-07T08:34:16.016Z,27.60
2022-10-07T08:37:03.853Z,27.60
2022-10-07T08:39:52.482Z,27.70
2022-10-07T08:42:46.336Z,27.70
2022-10-07T08:45:34.525Z,27.70
2022-10-07T08:48:32.929Z,27.80
2022-10-07T08:51:48.491Z,27.80
2022-10-07T08:54:39.349Z,27.80
2022-10-07T08:57:54.832Z,27.80
2022-10-07T09:01:03.411Z,27.90
2022-10-07T09:04:26.015Z,27.90
2022-10-07T09:07:26.871Z,27.90
2022-10-07T09:10:37.575Z,28.00
2022-10-07T09:13:35.801Z,28.00
2022-10-07T09:16:35.218Z,28.10
2022-10-07T09:19:33.104Z,28.10
2022-10-07T09:22:29.314Z,28.10
2022-10-07T09:25:25.216Z,28.20
2022-10-07T09:28:15.451Z,28.20
2022-10-07T09:31:03.365Z,28.30
2022-10-07T09:33:52.935Z,28.30
2022-10-07T09:37:21.945Z,28.40
2022-10-07T09:40:30.063Z,28.40
2022-10-07T09:43:19.632Z,28.40
2022-10-07T09:46:46.815Z,28.50
2022-10-07T09:49:49.343Z,28.50
2022-10-07T09:52:40.271Z,28.60
2022-10-07T09:55:40.482Z,28.60
2022-10-07T09:58:32.425Z,28.70
2022-10-07T10:01:23.091Z,28.70
2022-10-07T10:04:18.133Z,28.70
2022-10-07T10:07:22.288Z,28.80
2022-10-07T10:10:18.651Z,28.80
2022-10-07T10:13:10.755Z,28.80
2022-10-07T10:16:00.172Z,28.80
2022-10-07T10:19:22.639Z,28.90
2022-10-07T10:22:26.868Z,28.90
2022-10-07T10:25:34.354Z,28.90
2022-10-07T10:28:42.912Z,28.90
2022-10-07T10:31:45.350Z,28.90
2022-10-07T10:35:00.309Z,29.00
2022-10-07T10:38:27.909Z,29.00
2022-10-07T10:41:31.080Z,29.00
2022-10-07T10:44:33.911Z,29.00
2022-10-07T10:48:11.199Z,29.10
2022-10-07T10:51:14.020Z,29.20
2022-10-07T10:54:13.539Z,29.20
2022-10-07T10:57:34.213Z,29.30
2022-10-07T11:00:23.495Z,29.30
2022-10-07T11:03:34.152Z,29.40
2022-10-07T11:06:26.513Z,29.40
2022-10-07T11:09:28.603Z,29.50
2022-10-07T11:12:27.785Z,29.50
2022-10-07T11:15:32.754Z,29.60
2022-10-07T11:18:45.637Z,29.60
2022-10-07T11:21:42.966Z,29.70
2022-10-07T11:24:43.564Z,29.70
2022-10-07T11:27:34.776Z,29.80
2022-10-07T11:30:37.712Z,29.80
2022-10-07T11:33:39.339Z,29.90
2022-10-07T11:36:58.817Z,29.90
2022-10-07T11:39:49.169Z,30.00
2022-10-07T11:42:51.663Z,30.00
2022-10-07T11:45:49.982Z,30.10
2022-10-07T11:48:45.885Z,30.10
2022-10-07T11:51:46.099Z,30.20
2022-10-07T11:54:50.224Z,30.30
2022-10-07T11:57:40.628Z,30.30
2022-10-07T12:00:34.012Z,30.30
2022-10-07T12:03:21.706Z,30.40
2022-10-07T12:06:13.407Z,30.40
2022-10-07T12:09:58.331Z,30.40
2022-10-07T12:12:56.969Z,30.40
2022-10-07T12:15:48.071Z,30.50
2022-10-07T12:18:37.899Z,30.50
2022-10-07T12:21:25.859Z,30.40
2022-10-07T12:24:15.825Z,30.40
2022-10-07T12:27:27.355Z,30.50
2022-10-07T12:30:42.521Z,30.50
2022-10-07T12:33:46.276Z,30.50
2022-10-07T12:36:34.257Z,30.50
2022-10-07T12:39:36.520Z,30.50
2022-10-07T12:42:24.972Z,30.50
2022-10-07T12:45:14.635Z,30.50
2022-10-07T12:48:04.579Z,30.50
2022-10-07T12:50:56.995Z,30.50
2022-10-07T12:53:48.857Z,30.60
2022-10-07T12:56:44.291Z,30.60
2022-10-07T12:59:47.726Z,30.60
2022-10-07T13:03:19.172Z,30.70
2022-10-07T13:06:49.006Z,30.70
2022-10-07T13:10:28.374Z,30.70
2022-10-07T13:13:26.645Z,30.70
2022-10-07T13:16:59.065Z,30.70
2022-10-07T13:20:54.259Z,30.70
2022-10-07T13:23:51.574Z,30.70
2022-10-07T13:26:45.981Z,30.70
2022-10-07T13:29:37.609Z,30.80
2022-10-07T13:32:35.732Z,30.80
2022-10-07T13:35:36.248Z,30.80
2022-10-07T13:38:28.361Z,30.80
2022-10-07T13:41:27.532Z,30.80
2022-10-07T13:44:20.167Z,30.70
2022-10-07T13:47:09.970Z,30.70
2022-10-07T13:49:59.313Z,30.70
2022-10-07T13:52:51.738Z,30.70
2022-10-07T13:55:39.479Z,30.70
2022-10-07T13:58:27.593Z,30.70
2022-10-07T14:01:15.938Z,30.70
2022-10-07T14:04:33.402Z,30.80
2022-10-07T14:07:27.004Z,30.80
2022-10-07T14:10:14.759Z,30.80
2022-10-07T14:13:09.666Z,30.80
2022-10-07T14:15:59.223Z,30.80
2022-10-07T14:18:47.963Z,30.80
2022-10-07T14:21:41.286Z,30.80
2022-10-07T14:24:30.537Z,30.80
2022-10-07T14:27:56.882Z,30.70
2022-10-07T14:31:26.324Z,30.70
2022-10-07T14:34:38.199Z,30.70
2022-10-07T14:37:31.774Z,30.70
2022-10-07T14:40:23.535Z,30.60
2022-10-07T14:43:11.188Z,30.60
2022-10-07T14:46:18.132Z,30.60
2022-10-07T14:49:08.640Z,30.60
2022-10-07T14:51:59.690Z,30.60
2022-10-07T14:54:48.531Z,30.60
2022-10-07T14:57:36.348Z,30.60
2022-10-07T15:00:29.197Z,30.50
2022-10-07T15:03:16.997Z,30.50
2022-10-07T15:06:07.067Z,30.50
2022-10-07T15:08:54.868Z,30.50
2022-10-07T15:11:42.633Z,30.50
2022-10-07T15:14:30.392Z,30.40
2022-10-07T15:17:20.457Z,30.40
2022-10-07T15:20:12.289Z,30.40
2022-10-07T15:23:02.448Z,30.40
2022-10-07T15:25:52.410Z,30.40
2022-10-07T15:28:42.499Z,30.30
2022-10-07T15:31:30.618Z,30.30
2022-10-07T15:34:18.762Z,30.30
2022-10-07T15:37:09.270Z,30.20
2022-10-07T15:40:00.052Z,30.20
2022-10-07T15:42:48.413Z,30.20
2022-10-07T15:45:36.424Z,30.20
2022-10-07T15:48:29.914Z,30.20
2022-10-07T15:51:17.666Z,30.20
2022-10-07T15:54:06.773Z,30.20
2022-10-07T15:56:54.522Z,30.20
2022-10-07T15:59:45.622Z,30.20
2022-10-07T16:02:36.277Z,30.20
2022-10-07T16:05:29.188Z,30.20
2022-10-07T16:08:17.020Z,30.20
2022-10-07T16:11:07.224Z,30.20
2022-10-07T16:13:55.045Z,30.20
2022-10-07T16:16:43.341Z,30.20
2022-10-07T16:19:31.138Z,30.20
2022-10-07T16:22:18.925Z,30.10
2022-10-07T16:25:07.055Z,30.10
2022-10-07T16:28:13.522Z,30.10
2022-10-07T16:31:01.338Z,30.20
2022-10-07T16:33:54.036Z,30.10
2022-10-07T16:36:45.498Z,30.10
2022-10-07T16:39:33.571Z,30.10
2022-10-07T16:42:23.306Z,30.10
2022-10-07T16:45:11.208Z,30.10
2022-10-07T16:48:03.800Z,30.10
2022-10-07T16:50:51.589Z,30.10
2022-10-07T16:53:41.096Z,30.10
2022-10-07T16:56:31.192Z,30.00
2022-10-07T16:59:24.314Z,30.00
2022-10-07T17:02:12.368Z,30.00
2022-10-07T17:05:00.293Z,30.00
2022-10-07T17:07:48.962Z,30.00
2022-10-07T17:10:40.248Z,30.00
2022-10-07T17:13:31.677Z,29.90
2022-10-07T17:16:21.669Z,29.90
2022-10-07T17:19:13.827Z,29.90
2022-10-07T17:22:01.641Z,29.90
2022-10-07T17:24:49.772Z,29.90
2022-10-07T17:27:39.809Z,29.90
2022-10-07T17:30:30.632Z,29.90
2022-10-07T17:33:18.401Z,29.90
2022-10-07T17:36:08.545Z,29.90
2022-10-07T17:38:58.860Z,29.90
2022-10-07T17:41:47.016Z,29.90
2022-10-07T17:44:34.750Z,29.90
2022-10-07T17:47:22.499Z,29.80
2022-10-07T17:50:10.381Z,29.80
2022-10-07T17:53:00.374Z,29.80
2022-10-07T17:55:52.245Z,29.80
2022-10-07T17:58:43.333Z,29.80
2022-10-07T18:01:34.102Z,29.70
2022-10-07T18:04:24.941Z,29.70
2022-10-07T18:07:17.392Z,29.70
2022-10-07T18:10:05.461Z,29.70
2022-10-07T18:13:11.732Z,29.60
2022-10-07T18:16:00.795Z,29.60
2022-10-07T18:18:56.673Z,29.60
2022-10-07T18:21:48.025Z,29.50
2022-10-07T18:24:35.911Z,29.50
2022-10-07T18:27:27.079Z,29.50
2022-10-07T18:30:14.900Z,29.50
2022-10-07T18:33:02.619Z,29.50
2022-10-07T18:36:07.436Z,29.50
2022-10-07T18:38:58.308Z,29.50
2022-10-07T18:41:46.306Z,29.50
2022-10-07T18:44:34.149Z,29.50
2022-10-07T18:47:21.938Z,29.50
2022-10-07T18:50:12.301Z,29.50
2022-10-07T18:53:00.698Z,29.50
2022-10-07T18:55:48.509Z,29.50
2022-10-07T18:58:39.397Z,29.50
2022-10-07T19:01:30.167Z,29.50
2022-10-07T19:04:18.611Z,29.50
2022-10-07T19:07:06.418Z,29.50
2022-10-07T19:09:54.230Z,29.50
2022-10-07T19:13:00.229Z,29.50
2022-10-07T19:15:48.006Z,29.50
2022-10-07T19:18:35.797Z,29.50
2022-10-07T19:21:24.313Z,29.50
2022-10-07T19:24:12.543Z,29.50
2022-10-07T19:27:02.766Z,29.50
2022-10-07T19:29:51.053Z,29.50
2022-10-07T19:32:38.879Z,29.50
2022-10-07T19:35:26.646Z,29.50
2022-10-07T19:38:14.747Z,29.50
2022-10-07T19:41:02.545Z,29.50
2022-10-07T19:43:50.969Z,29.40
2022-10-07T19:46:39.436Z,29.40
2022-10-07T19:49:28.352Z,29.40
2022-10-07T19:52:16.991Z,29.40
2022-10-07T19:55:05.580Z,29.30
2022-10-07T19:57:54.576Z,29.30
2022-10-07T20:00:42.525Z,29.30
2022-10-07T20:03:30.512Z,29.20
2022-10-07T20:06:18.285Z,29.20
2022-10-07T20:09:09.210Z,29.20
2022-10-07T20:11:56.993Z,29.10
2022-10-07T20:14:45.380Z,29.10
2022-10-07T20:17:33.184Z,29.10
2022-10-07T20:20:24.332Z,29.00
2022-10-07T20:23:12.066Z,29.00
2022-10-07T20:26:08.047Z,29.00
2022-10-07T20:28:59.474Z,29.00
2022-10-07T20:31:47.300Z,28.90
2022-10-07T20:34:35.086Z,28.90
2022-10-07T20:37:25.337Z,28.90
2022-10-07T20:40:31.678Z,28.90
2022-10-07T20:43:21.644Z,28.90
2022-10-07T20:46:09.516Z,28.80
2022-10-07T20:48:57.335Z,28.80
2022-10-07T20:51:45.508Z,28.80
2022-10-07T20:54:33.346Z,28.80
2022-10-07T20:57:27.375Z,28.70
2022-10-07T21:00:16.871Z,28.70
2022-10-07T21:03:04.681Z,28.70
2022-10-07T21:05:59.051Z,28.70
2022-10-07T21:08:47.253Z,28.70
2022-10-07T21:11:35.494Z,28.60
2022-10-07T21:14:23.298Z,28.60
2022-10-07T21:17:11.678Z,28.60
2022-10-07T21:19:59.432Z,28.60
2022-10-07T21:22:48.539Z,28.60
2022-10-07T21:25:36.676Z,28.50
2022-10-07T21:28:25.058Z,28.50
2022-10-07T21:31:17.400Z,28.50
2022-10-07T21:34:08.439Z,28.50
2022-10-07T21:36:57.244Z,28.50
2022-10-07T21:39:44.963Z,28.40
2022-10-07T21:42:32.764Z,28.40
2022-10-07T21:45:20.497Z,28.40
2022-10-07T21:48:08.339Z,28.40
2022-10-07T21:50:58.057Z,28.40
2022-10-07T21:53:51.138Z,28.40
2022-10-07T21:56:38.930Z,28.40
2022-10-07T21:59:26.697Z,28.30
2022-10-07T22:02:14.510Z,28.30
2022-10-07T22:05:02.323Z,28.30
2022-10-07T22:08:08.625Z,28.20
2022-10-07T22:11:19.628Z,28.20
2022-10-07T22:14:12.310Z,28.20
2022-10-07T22:17:00.719Z,28.20
2022-10-07T22:19:49.336Z,28.20
2022-10-07T22:22:37.078Z,28.20
2022-10-07T22:25:24.839Z,28.10
2022-10-07T22:28:12.618Z,28.10
2022-10-07T22:31:03.924Z,28.10
2022-10-07T22:33:59.546Z,28.10
2022-10-07T22:36:47.315Z,28.10
2022-10-07T22:39:35.072Z,28.00
2022-10-07T22:42:22.866Z,28.00
2022-10-07T22:45:10.974Z,28.00
2022-10-07T22:47:58.860Z,28.00
2022-10-07T22:50:46.591Z,28.00
2022-10-07T22:53:36.200Z,28.00
2022-10-07T22:56:27.516Z,27.90
2022-10-07T22:59:15.358Z,27.90
2022-10-07T23:02:03.233Z,27.90
2022-10-07T23:04:51.031Z,27.90
2022-10-07T23:07:38.775Z,27.90
2022-10-07T23:10:26.496Z,27.90
2022-10-07T23:13:14.306Z,27.80
2022-10-07T23:16:05.996Z,27.80
2022-10-07T23:18:53.857Z,27.80
2022-10-07T23:21:41.682Z,27.80
2022-10-07T23:24:29.445Z,27.80
2022-10-07T23:27:17.186Z,27.80
2022-10-07T23:30:05.581Z,27.70
2022-10-07T23:32:53.351Z,27.70
2022-10-07T23:35:41.669Z,27.70
2022-10-07T23:38:29.673Z,27.70
2022-10-07T23:41:21.030Z,27.70
2022-10-07T23:44:08.806Z,27.70
2022-10-07T23:46:56.654Z,27.70
2022-10-07T23:49:44.439Z,27.60
2022-10-07T23:52:32.618Z,27.70
2022-10-07T23:55:20.455Z,27.60
2022-10-07T23:58:08.227Z,27.60
